Time;durP1;ratioP1;P1;durP2;ratioP2;P2;SDS_P1;SDS_P2;PMS_P1;PMS_P2;Temp;Humidity;BMP_temperature;BMP_pressure;BME280_temperature;BME280_humidity;BME280_pressure;Samples;Min_cycle;Max_cycle;Signal;HPM_P1;HPM_P2
2021/12/10 00:01:14;;;;;;;12.93;7.00;;;;;;;;;;4929542;29;20544;-86
2021/12/10 00:04:22;;;;;;;13.53;7.43;;;;;;;;;;4929989;29;21105;-86
2021/12/10 00:07:29;;;;;;;12.90;7.23;;;;;;;;;;4930072;29;21086;-86
2021/12/10 00:10:38;;;;;;;13.27;7.00;;;;;;;;;;4929489;29;20651;-86
2021/12/10 00:13:45;;;;;;;10.97;6.60;;;;;;;;;;4930041;29;20895;-86
2021/12/10 00:16:49;;;;;;;12.73;7.13;;;;;;;;;;4929835;29;20608;-86
2021/12/10 00:19:57;;;;;;;13.03;7.10;;;;;;;;;;4929830;29;20639;-86
2021/12/10 00:23:07;;;;;;;10.17;7.17;;;;;;;;;;4929316;29;20607;-86
2021/12/10 00:26:11;;;;;;;9.97;6.83;;;;;;;;;;4929234;29;20549;-86
2021/12/10 00:29:17;;;;;;;9.97;7.13;;;;;;;;;;4928624;29;20635;-86
2021/12/10 00:32:33;;;;;;;10.73;6.80;;;;;;;;;;4929131;29;20556;-87
2021/12/10 00:35:38;;;;;;;12.00;7.07;;;;;;;;;;4917363;29;20552;-86
2021/12/10 00:38:42;;;;;;;12.90;7.27;;;;;;;;;;4928128;29;20631;-86
2021/12/10 00:41:47;;;;;;;12.93;7.30;;;;;;;;;;4938943;29;21090;-86
2021/12/10 00:44:52;;;;;;;12.70;7.00;;;;;;;;;;4927935;29;20883;-86
2021/12/10 00:47:57;;;;;;;17.43;8.00;;;;;;;;;;4927843;29;20540;-87
2021/12/10 00:51:05;;;;;;;11.07;6.87;;;;;;;;;;4927561;29;20605;-87
2021/12/10 00:54:10;;;;;;;9.90;6.53;;;;;;;;;;4938187;29;20548;-86
2021/12/10 00:57:15;;;;;;;12.33;7.20;;;;;;;;;;4938084;29;21093;-87
2021/12/10 01:00:24;;;;;;;14.87;7.80;;;;;;;;;;4937765;29;20632;-87
2021/12/10 01:03:33;;;;;;;12.27;7.30;;;;;;;;;;4937868;29;20544;-87
2021/12/10 01:06:40;;;;;;;11.23;7.33;;;;;;;;;;4926617;29;20548;-87
2021/12/10 01:09:47;;;;;;;12.87;6.53;;;;;;;;;;4926516;29;20978;-87
2021/12/10 01:12:54;;;;;;;11.20;6.80;;;;;;;;;;4915158;29;20553;-87
2021/12/10 01:29:43;;;;;;;10.97;6.37;;;;;;;;;;4936752;29;20631;-87
2021/12/10 01:32:52;;;;;;;10.13;5.77;;;;;;;;;;4925539;29;20549;-87
2021/12/10 01:35:59;;;;;;;10.60;5.73;;;;;;;;;;4936482;29;20879;-87
2021/12/10 01:39:34;;;;;;;13.30;6.53;;;;;;;;;;4925840;29;20635;-87
2021/12/10 01:42:46;;;;;;;7.67;5.63;;;;;;;;;;4916792;29;20891;-87
2021/12/10 01:46:06;;;;;;;10.23;6.27;;;;;;;;;;4936444;29;20604;-87
2021/12/10 01:49:19;;;;;;;11.87;5.87;;;;;;;;;;4914503;29;20628;-87
2021/12/10 01:52:25;;;;;;;11.40;6.00;;;;;;;;;;4936417;29;20545;-88
2021/12/10 01:55:31;;;;;;;10.40;5.70;;;;;;;;;;4914553;29;20545;-87
2021/12/10 01:58:49;;;;;;;11.30;5.50;;;;;;;;;;4924852;29;20639;-88
2021/12/10 02:02:03;;;;;;;7.53;4.80;;;;;;;;;;4925468;29;20549;-88
2021/12/10 02:05:11;;;;;;;10.07;5.20;;;;;;;;;;4936194;29;21078;-88
2021/12/10 02:08:23;;;;;;;6.97;4.93;;;;;;;;;;4924676;29;20604;-88
2021/12/10 02:12:04;;;;;;;6.97;4.97;;;;;;;;;;4915659;29;21232;-88
2021/12/10 02:15:40;;;;;;;7.27;4.50;;;;;;;;;;4919490;29;20559;-87
2021/12/10 02:19:05;;;;;;;9.90;4.77;;;;;;;;;;4913905;29;20639;-87
2021/12/10 02:22:29;;;;;;;;;;;;;;;;;;;;;
2021/12/10 02:25:39;;;;;;;7.97;4.57;;;;;;;;;;4928747;29;20619;-87
2021/12/10 02:29:06;;;;;;;7.30;4.57;;;;;;;;;;4932225;29;20628;-88
2021/12/10 02:37:14;;;;;;;9.40;4.53;;;;;;;;;;4921146;29;21094;-87
2021/12/10 02:40:38;;;;;;;5.40;3.57;;;;;;;;;;4927868;23;21031;-77
2021/12/10 02:43:43;;;;;;;9.80;3.73;;;;;;;;;;4919587;29;20561;-76
2021/12/10 02:46:47;;;;;;;6.27;3.70;;;;;;;;;;4898306;29;20545;-77
2021/12/10 02:49:51;;;;;;;7.03;3.90;;;;;;;;;;4908884;29;20963;-77
2021/12/10 02:52:56;;;;;;;9.90;3.80;;;;;;;;;;4919713;29;20529;-77
2021/12/10 02:56:03;;;;;;;7.63;4.03;;;;;;;;;;4920472;29;21105;-77
2021/12/10 02:59:07;;;;;;;9.43;4.20;;;;;;;;;;4919965;29;20601;-77
2021/12/10 03:02:15;;;;;;;8.17;3.80;;;;;;;;;;4920321;29;20541;-76
2021/12/10 03:05:20;;;;;;;7.33;3.90;;;;;;;;;;4920011;29;21126;-77
2021/12/10 03:08:24;;;;;;;5.30;3.80;;;;;;;;;;4908563;29;20545;-77
2021/12/10 03:11:34;;;;;;;5.00;3.53;;;;;;;;;;4908179;29;20589;-76
2021/12/10 03:14:41;;;;;;;7.37;3.60;;;;;;;;;;4919074;29;20553;-76
2021/12/10 03:17:46;;;;;;;5.53;3.40;;;;;;;;;;4908431;29;20580;-76
2021/12/10 03:20:50;;;;;;;6.00;4.00;;;;;;;;;;4897317;29;20616;-76
2021/12/10 03:23:55;;;;;;;8.73;3.87;;;;;;;;;;4919912;29;20553;-76
2021/12/10 03:27:03;;;;;;;6.77;3.33;;;;;;;;;;4919884;29;20553;-76
2021/12/10 03:30:11;;;;;;;11.13;3.60;;;;;;;;;;4908081;29;20628;-77
2021/12/10 03:33:15;;;;;;;6.77;3.23;;;;;;;;;;4907865;29;20596;-76
2021/12/10 03:36:20;;;;;;;4.33;3.23;;;;;;;;;;4918797;29;21166;-76
2021/12/10 03:39:25;;;;;;;9.13;3.43;;;;;;;;;;4919498;29;20644;-76
2021/12/10 03:42:29;;;;;;;7.00;3.50;;;;;;;;;;4918791;29;20541;-76
2021/12/10 03:45:40;;;;;;;4.77;2.93;;;;;;;;;;4919556;29;20541;-77
2021/12/10 03:48:45;;;;;;;6.63;3.33;;;;;;;;;;4929688;29;20876;-77
2021/12/10 03:51:50;;;;;;;7.93;3.40;;;;;;;;;;4918558;29;20593;-77
2021/12/10 03:54:54;;;;;;;9.37;3.00;;;;;;;;;;4907708;29;20884;-77
2021/12/10 03:57:59;;;;;;;5.23;3.07;;;;;;;;;;4896897;29;20541;-77
2021/12/10 04:01:05;;;;;;;5.67;2.60;;;;;;;;;;4918971;29;20620;-77
2021/12/10 04:04:14;;;;;;;7.57;2.80;;;;;;;;;;4919243;29;20550;-77
2021/12/10 04:07:22;;;;;;;7.73;2.70;;;;;;;;;;4919131;29;20541;-76
2021/12/10 04:10:27;;;;;;;5.57;2.60;;;;;;;;;;4918204;29;20625;-76
2021/12/10 04:13:32;;;;;;;3.43;2.43;;;;;;;;;;4918016;29;20557;-77
2021/12/10 04:16:37;;;;;;;3.10;2.53;;;;;;;;;;4907321;29;20550;-77
2021/12/10 04:19:41;;;;;;;4.87;2.43;;;;;;;;;;4917949;29;20624;-77
2021/12/10 04:22:46;;;;;;;5.83;2.73;;;;;;;;;;4918139;29;20879;-77
2021/12/10 04:25:50;;;;;;;9.43;2.70;;;;;;;;;;4928934;29;20542;-77
2021/12/10 04:28:54;;;;;;;6.57;2.47;;;;;;;;;;4917721;29;20609;-77
2021/12/10 04:32:00;;;;;;;4.67;2.80;;;;;;;;;;4896170;29;20674;-77
2021/12/10 04:35:04;;;;;;;9.30;2.70;;;;;;;;;;4918024;29;20565;-78
2021/12/10 04:38:09;;;;;;;5.17;2.70;;;;;;;;;;4918667;29;20601;-78
2021/12/10 04:41:14;;;;;;;5.17;2.70;;;;;;;;;;4885602;29;21224;-77
2021/12/10 04:44:18;;;;;;;3.73;2.70;;;;;;;;;;4910146;29;20542;-78
2021/12/10 04:47:23;;;;;;;5.67;2.73;;;;;;;;;;4909761;29;20545;-78
2021/12/10 04:50:29;;;;;;;3.70;2.67;;;;;;;;;;4920937;29;20632;-79
2021/12/10 04:53:33;;;;;;;5.07;2.53;;;;;;;;;;4922127;29;20530;-78
2021/12/10 04:56:39;;;;;;;6.10;2.73;;;;;;;;;;4901589;29;20553;-78
2021/12/10 04:59:43;;;;;;;4.07;2.20;;;;;;;;;;4912776;29;20629;-78
2021/12/10 05:02:48;;;;;;;4.37;2.17;;;;;;;;;;4924526;29;20546;-78
2021/12/10 05:05:56;;;;;;;4.23;2.50;;;;;;;;;;4924874;29;20896;-77
2021/12/10 05:09:01;;;;;;;5.87;2.30;;;;;;;;;;4913652;29;21169;-78
2021/12/10 05:12:06;;;;;;;5.20;2.07;;;;;;;;;;4913459;29;20597;-78
2021/12/10 05:15:19;;;;;;;8.03;2.47;;;;;;;;;;4893573;29;20558;-78
2021/12/10 05:18:25;;;;;;;7.93;2.70;;;;;;;;;;4914692;29;20553;-78
2021/12/10 05:21:32;;;;;;;2.73;2.20;;;;;;;;;;4913495;29;20900;-78
2021/12/10 05:24:37;;;;;;;4.50;2.20;;;;;;;;;;4913167;29;20554;-78
2021/12/10 05:27:42;;;;;;;5.10;2.70;;;;;;;;;;4923999;29;20549;-78
2021/12/10 05:30:47;;;;;;;4.13;2.20;;;;;;;;;;4914465;29;20621;-78
2021/12/10 05:33:51;;;;;;;6.20;2.37;;;;;;;;;;4903880;29;20553;-78
2021/12/10 05:36:57;;;;;;;4.43;2.83;;;;;;;;;;4925216;29;21094;-78
2021/12/10 05:40:04;;;;;;;5.77;2.47;;;;;;;;;;4925020;29;20644;-79
2021/12/10 05:43:08;;;;;;;6.07;2.47;;;;;;;;;;4925204;29;20872;-78
2021/12/10 05:46:13;;;;;;;28.77;11.47;;;;;;;;;;4925515;29;20955;-80
2021/12/10 05:49:18;;;;;;;36.43;15.77;;;;;;;;;;4925545;29;20557;-79
2021/12/10 05:52:22;;;;;;;23.33;10.70;;;;;;;;;;4914638;29;20627;-80
2021/12/10 05:55:27;;;;;;;11.23;6.00;;;;;;;;;;4904321;29;20557;-79
2021/12/10 05:58:31;;;;;;;10.57;4.83;;;;;;;;;;4902943;29;21123;-80
2021/12/10 06:01:36;;;;;;;6.37;3.40;;;;;;;;;;4914611;29;20557;-80
2021/12/10 06:04:42;;;;;;;5.53;2.60;;;;;;;;;;4914685;29;20605;-80
2021/12/10 06:07:46;;;;;;;3.47;2.43;;;;;;;;;;4903612;29;20601;-80
2021/12/10 06:10:52;;;;;;;5.60;2.67;;;;;;;;;;4903389;29;20624;-79
2021/12/10 06:13:56;;;;;;;4.00;2.43;;;;;;;;;;4903730;29;20534;-79
2021/12/10 06:17:00;;;;;;;8.23;2.80;;;;;;;;;;4914372;29;20550;-79
2021/12/10 06:20:07;;;;;;;6.77;2.73;;;;;;;;;;4935438;29;20616;-79
2021/12/10 06:23:11;;;;;;;7.63;2.70;;;;;;;;;;4914002;29;20534;-80
2021/12/10 06:26:16;;;;;;;6.27;3.13;;;;;;;;;;4923154;29;20616;-79
2021/12/10 06:29:23;;;;;;;4.70;2.83;;;;;;;;;;4911606;29;20632;-79
2021/12/10 06:32:28;;;;;;;6.20;2.80;;;;;;;;;;4922121;29;20605;-79
2021/12/10 06:35:33;;;;;;;5.53;3.20;;;;;;;;;;4932642;29;20577;-79
2021/12/10 06:38:38;;;;;;;3.50;2.70;;;;;;;;;;4922523;29;20600;-79
2021/12/10 06:41:42;;;;;;;5.40;3.27;;;;;;;;;;4889510;29;20550;-78
2021/12/10 06:44:46;;;;;;;4.90;3.43;;;;;;;;;;4900915;29;21102;-79
2021/12/10 06:47:54;;;;;;;4.87;3.73;;;;;;;;;;4911933;29;20549;-79
2021/12/10 06:51:14;;;;;;;7.20;4.37;;;;;;;;;;4912149;29;20628;-79
2021/12/10 06:54:18;;;;;;;7.90;4.60;;;;;;;;;;4933314;29;20566;-79
2021/12/10 06:57:22;;;;;;;6.27;4.33;;;;;;;;;;4910061;29;20550;-79
2021/12/10 07:00:42;;;;;;;8.47;4.60;;;;;;;;;;4899652;29;20625;-79
2021/12/10 07:03:46;;;;;;;7.37;4.40;;;;;;;;;;4911158;29;20545;-79
2021/12/10 07:06:52;;;;;;;7.87;4.07;;;;;;;;;;4900526;29;20538;-79
2021/12/10 07:09:57;;;;;;;7.57;4.03;;;;;;;;;;4922353;29;20990;-79
2021/12/10 07:13:03;;;;;;;7.03;4.40;;;;;;;;;;4925761;29;20597;-79
2021/12/10 07:16:07;;;;;;;13.97;7.57;;;;;;;;;;4936963;29;20549;-79
2021/12/10 07:19:13;;;;;;;10.27;4.83;;;;;;;;;;4936501;29;20545;-79
2021/12/10 07:22:17;;;;;;;7.00;4.07;;;;;;;;;;4914702;29;20904;-78
2021/12/10 07:25:22;;;;;;;7.80;3.97;;;;;;;;;;4904021;29;20541;-79
2021/12/10 07:28:26;;;;;;;6.37;3.67;;;;;;;;;;4936556;29;20545;-79
2021/12/10 07:31:31;;;;;;;5.33;3.77;;;;;;;;;;4904184;29;20549;-79
2021/12/10 07:34:35;;;;;;;6.53;3.80;;;;;;;;;;4914772;29;20561;-79
2021/12/10 07:37:40;;;;;;;28.00;11.10;;;;;;;;;;4914654;29;20900;-79
2021/12/10 07:40:45;;;;;;;14.53;7.70;;;;;;;;;;4893211;29;20639;-79
2021/12/10 07:43:49;;;;;;;7.97;4.57;;;;;;;;;;4924905;29;20915;-79
2021/12/10 07:46:55;;;;;;;5.20;3.67;;;;;;;;;;4913997;29;20549;-79
2021/12/10 07:49:59;;;;;;;7.93;3.20;;;;;;;;;;4903613;29;20636;-80
2021/12/10 07:53:04;;;;;;;4.17;3.03;;;;;;;;;;4902789;29;20593;-79
2021/12/10 07:56:10;;;;;;;5.40;3.20;;;;;;;;;;4924193;29;20553;-79
2021/12/10 07:59:15;;;;;;;4.83;3.23;;;;;;;;;;4903615;29;20593;-79
2021/12/10 08:02:19;;;;;;;6.33;3.33;;;;;;;;;;4925543;29;20613;-79
2021/12/10 08:05:25;;;;;;;4.80;3.50;;;;;;;;;;4890412;29;20561;-79
2021/12/10 08:08:36;;;;;;;4.07;3.17;;;;;;;;;;4905109;29;20644;-79
2021/12/10 08:11:47;;;;;;;5.07;3.10;;;;;;;;;;4902807;29;20581;-79
2021/12/10 08:14:55;;;;;;;9.00;3.30;;;;;;;;;;4914058;29;20593;-79
2021/12/10 08:17:59;;;;;;;5.50;3.30;;;;;;;;;;4926953;29;20584;-79
2021/12/10 08:21:05;;;;;;;6.13;3.03;;;;;;;;;;4924744;29;20649;-79
2021/12/10 08:24:10;;;;;;;5.47;3.10;;;;;;;;;;4904906;29;20621;-77
2021/12/10 08:27:15;;;;;;;7.00;4.23;;;;;;;;;;4904485;29;20628;-78
2021/12/10 08:30:23;;;;;;;10.70;5.90;;;;;;;;;;4891906;29;20641;-78
2021/12/10 08:33:27;;;;;;;10.73;6.77;;;;;;;;;;4896230;29;21013;-78
2021/12/10 08:36:33;;;;;;;6.93;4.23;;;;;;;;;;4892526;29;21160;-80
2021/12/10 08:39:37;;;;;;;5.47;4.27;;;;;;;;;;4904591;29;20664;-79
2021/12/10 08:42:42;;;;;;;8.03;3.67;;;;;;;;;;4893083;29;20566;-79
2021/12/10 08:45:47;;;;;;;7.87;4.43;;;;;;;;;;4872853;29;20589;-79
2021/12/10 08:48:51;;;;;;;5.90;4.43;;;;;;;;;;4885276;29;20590;-79
2021/12/10 08:51:57;;;;;;;5.17;3.37;;;;;;;;;;4916742;29;20598;-79
2021/12/10 08:55:03;;;;;;;4.47;3.90;;;;;;;;;;4902909;29;20594;-80
2021/12/10 08:58:07;;;;;;;7.80;3.70;;;;;;;;;;4903341;29;20653;-79
2021/12/10 09:01:17;;;;;;;7.63;3.27;;;;;;;;;;4884274;29;20636;-79
2021/12/10 09:04:23;;;;;;;9.03;4.00;;;;;;;;;;4906715;29;20586;-80
2021/12/10 09:07:27;;;;;;;7.13;3.67;;;;;;;;;;4902583;29;20573;-80
2021/12/10 09:10:36;;;;;;;8.40;3.73;;;;;;;;;;4880803;29;20625;-79
2021/12/10 09:13:41;;;;;;;4.50;3.30;;;;;;;;;;4870361;29;20661;-78
2021/12/10 09:16:45;;;;;;;5.00;2.97;;;;;;;;;;4891998;29;20582;-80
2021/12/10 09:19:52;;;;;;;3.63;3.17;;;;;;;;;;4881009;29;21000;-80
2021/12/10 09:22:56;;;;;;;4.90;2.83;;;;;;;;;;4891235;29;20559;-80
2021/12/10 09:26:05;;;;;;;7.70;3.03;;;;;;;;;;4891322;29;20578;-79
2021/12/10 09:29:13;;;;;;;4.00;2.40;;;;;;;;;;4902303;29;20578;-80
2021/12/10 09:32:24;;;;;;;4.23;2.47;;;;;;;;;;4890755;29;20570;-80
2021/12/10 09:35:30;;;;;;;6.07;2.50;;;;;;;;;;4900951;29;21143;-79
2021/12/10 09:38:34;;;;;;;5.40;3.50;;;;;;;;;;4880880;29;20577;-80
2021/12/10 09:41:42;;;;;;;7.30;3.33;;;;;;;;;;4870566;29;20578;-79
2021/12/10 09:44:47;;;;;;;4.90;2.60;;;;;;;;;;4902083;29;20605;-79
2021/12/10 09:47:51;;;;;;;6.07;3.10;;;;;;;;;;4880646;29;21166;-80
2021/12/10 09:51:10;;;;;;;5.83;3.23;;;;;;;;;;4891136;29;20629;-79
2021/12/10 09:54:19;;;;;;;3.77;2.97;;;;;;;;;;4890894;29;20657;-79
2021/12/10 09:57:28;;;;;;;5.03;3.07;;;;;;;;;;4881009;29;20582;-80
2021/12/10 10:00:37;;;;;;;3.03;2.63;;;;;;;;;;4880296;29;20630;-80
2021/12/10 10:03:47;;;;;;;6.93;3.03;;;;;;;;;;4881908;29;20570;-79
2021/12/10 10:06:59;;;;;;;3.67;2.97;;;;;;;;;;4891769;29;20601;-79
2021/12/10 10:10:13;;;;;;;6.30;3.30;;;;;;;;;;4902782;29;20972;-79
2021/12/10 10:13:24;;;;;;;3.17;2.77;;;;;;;;;;4901544;29;21197;-79
2021/12/10 10:16:55;;;;;;;3.73;3.10;;;;;;;;;;4894134;29;20570;-80
2021/12/10 10:20:00;;;;;;;4.87;3.00;;;;;;;;;;4902379;29;20629;-80
2021/12/10 10:23:05;;;;;;;6.00;3.40;;;;;;;;;;4891252;29;20570;-79
2021/12/10 10:26:18;;;;;;;4.20;3.00;;;;;;;;;;4901787;29;20617;-80
2021/12/10 10:29:26;;;;;;;4.60;3.07;;;;;;;;;;4891616;29;20634;-79
2021/12/10 10:32:33;;;;;;;4.23;2.67;;;;;;;;;;4891044;29;20570;-79
2021/12/10 10:35:49;;;;;;;3.80;2.87;;;;;;;;;;4901305;29;20570;-79
2021/12/10 10:39:09;;;;;;;3.07;2.57;;;;;;;;;;4901918;29;20621;-79
2021/12/10 10:42:20;;;;;;;4.30;2.60;;;;;;;;;;4901570;29;21122;-80
2021/12/10 10:45:32;;;;;;;4.67;2.80;;;;;;;;;;4901828;29;20562;-80
2021/12/10 10:48:37;;;;;;;5.47;2.40;;;;;;;;;;4916217;29;20569;-79
2021/12/10 10:51:41;;;;;;;3.67;2.33;;;;;;;;;;4894571;29;20601;-79
2021/12/10 10:54:47;;;;;;;4.60;2.50;;;;;;;;;;4905459;29;20665;-79
2021/12/10 10:57:59;;;;;;;3.47;2.10;;;;;;;;;;4871673;29;20613;-79
2021/12/10 11:01:14;;;;;;;4.30;2.13;;;;;;;;;;4894755;29;20633;-79
2021/12/10 11:04:31;;;;;;;3.30;2.00;;;;;;;;;;4890435;29;20600;-79
2021/12/10 11:07:44;;;;;;;3.27;2.27;;;;;;;;;;4914421;29;20573;-79
2021/12/10 11:10:48;;;;;;;3.20;1.93;;;;;;;;;;4921896;29;20628;-80
2021/12/10 11:14:12;;;;;;;5.50;2.13;;;;;;;;;;4921285;29;21213;-78
2021/12/10 11:17:18;;;;;;;3.77;1.80;;;;;;;;;;4921599;29;21141;-78
2021/12/10 11:20:28;;;;;;;1.83;1.53;;;;;;;;;;4920730;29;21002;-79
2021/12/10 11:23:33;;;;;;;3.87;1.70;;;;;;;;;;4899372;29;20604;-78
2021/12/10 11:27:09;;;;;;;6.33;2.13;;;;;;;;;;4920882;29;20580;-79
2021/12/10 11:30:25;;;;;;;3.93;1.67;;;;;;;;;;4898385;29;20636;-79
2021/12/10 11:33:33;;;;;;;2.40;1.80;;;;;;;;;;4920209;29;20652;-79
2021/12/10 11:36:39;;;;;;;2.90;1.93;;;;;;;;;;4898541;29;20577;-79
2021/12/10 11:39:52;;;;;;;4.37;2.30;;;;;;;;;;4931204;29;20652;-78
2021/12/10 11:43:03;;;;;;;3.93;2.10;;;;;;;;;;4909156;29;20561;-78
2021/12/10 11:49:38;;;;;;;3.70;2.20;;;;;;;;;;4930074;29;20636;-76
2021/12/10 11:52:42;;;;;;;4.73;2.50;;;;;;;;;;4907468;29;20569;-80
2021/12/10 11:56:00;;;;;;;3.57;2.03;;;;;;;;;;4897008;29;20572;-78
2021/12/10 11:59:17;;;;;;;4.43;2.73;;;;;;;;;;4918372;29;20616;-78
2021/12/10 12:02:28;;;;;;;6.50;3.67;;;;;;;;;;4919623;29;20561;-81
2021/12/10 12:05:40;;;;;;;4.37;3.00;;;;;;;;;;4897866;29;20900;-79
2021/12/10 12:08:45;;;;;;;9.57;2.90;;;;;;;;;;4908462;29;20565;-80
2021/12/10 12:12:10;;;;;;;7.33;4.07;;;;;;;;;;4897286;29;20572;-78
2021/12/10 12:15:20;;;;;;;7.77;3.17;;;;;;;;;;4908553;29;20558;-80
2021/12/10 12:18:32;;;;;;;2.73;2.13;;;;;;;;;;4920299;29;20569;-79
2021/12/10 12:25:08;;;;;;;4.40;1.90;;;;;;;;;;4919117;29;20605;-78
2021/12/10 12:28:15;;;;;;;6.70;1.97;;;;;;;;;;4899571;29;20569;-78
2021/12/10 12:31:24;;;;;;;2.83;1.83;;;;;;;;;;4921348;29;21232;-77
2021/12/10 12:34:28;;;;;;;3.87;2.00;;;;;;;;;;4897110;29;20620;-78
2021/12/10 12:37:33;;;;;;;3.03;1.60;;;;;;;;;;4908152;29;20573;-78
2021/12/10 12:40:37;;;;;;;3.47;2.00;;;;;;;;;;4908397;29;20640;-77
2021/12/10 12:43:45;;;;;;;5.57;1.73;;;;;;;;;;4908926;29;20569;-79
2021/12/10 12:47:02;;;;;;;2.80;1.77;;;;;;;;;;4897309;29;20561;-79
2021/12/10 12:50:16;;;;;;;3.37;1.70;;;;;;;;;;4907907;29;20994;-77
2021/12/10 12:53:29;;;;;;;2.87;1.77;;;;;;;;;;4919086;29;20621;-77
2021/12/10 12:56:38;;;;;;;2.50;1.43;;;;;;;;;;4907361;29;20577;-78
2021/12/10 12:59:42;;;;;;;3.10;2.23;;;;;;;;;;4918115;29;20628;-77
2021/12/10 13:02:59;;;;;;;2.77;2.03;;;;;;;;;;4930380;29;20572;-78
2021/12/10 13:06:19;;;;;;;3.70;1.93;;;;;;;;;;4919008;29;20561;-79
2021/12/10 13:09:49;;;;;;;2.40;1.70;;;;;;;;;;4907379;29;21201;-77
2021/12/10 13:13:09;;;;;;;2.23;1.80;;;;;;;;;;4920149;29;20565;-78
2021/12/10 13:16:28;;;;;;;4.00;2.17;;;;;;;;;;4909116;29;21102;-77
2021/12/10 13:19:32;;;;;;;3.53;2.20;;;;;;;;;;4907505;29;20640;-77
2021/12/10 13:22:37;;;;;;;2.63;1.80;;;;;;;;;;4896920;29;20601;-77
2021/12/10 13:25:42;;;;;;;2.80;1.90;;;;;;;;;;4907494;29;20569;-78
2021/12/10 13:28:47;;;;;;;2.03;1.70;;;;;;;;;;4914566;29;20568;-77
2021/12/10 13:31:51;;;;;;;3.47;1.83;;;;;;;;;;4925271;29;20565;-76
2021/12/10 13:34:55;;;;;;;3.03;2.10;;;;;;;;;;4891912;29;20648;-77
2021/12/10 13:38:02;;;;;;;2.20;1.67;;;;;;;;;;4914737;29;20612;-77
2021/12/10 13:41:10;;;;;;;2.97;2.00;;;;;;;;;;4914711;29;21249;-77
2021/12/10 13:44:31;;;;;;;4.63;2.00;;;;;;;;;;4913779;29;20612;-77
2021/12/10 13:47:49;;;;;;;3.47;2.27;;;;;;;;;;4914622;29;20566;-77
2021/12/10 13:50:55;;;;;;;5.50;2.30;;;;;;;;;;4903370;29;20633;-77
2021/12/10 13:54:05;;;;;;;3.90;2.40;;;;;;;;;;4902968;29;20616;-77
2021/12/10 13:57:12;;;;;;;3.20;2.27;;;;;;;;;;4913604;29;20573;-77
2021/12/10 14:00:17;;;;;;;2.60;2.17;;;;;;;;;;4893970;29;20978;-77
2021/12/10 14:03:59;;;;;;;5.03;2.30;;;;;;;;;;4894787;29;20692;-77
2021/12/10 14:07:23;;;;;;;2.67;1.97;;;;;;;;;;4886207;29;20620;-77
2021/12/10 14:10:32;;;;;;;3.67;1.93;;;;;;;;;;4916149;29;20629;-77
2021/12/10 14:13:38;;;;;;;3.77;2.60;;;;;;;;;;4916727;29;20549;-77
2021/12/10 14:16:57;;;;;;;5.93;2.23;;;;;;;;;;4905487;29;21070;-77
2021/12/10 14:20:10;;;;;;;4.60;2.73;;;;;;;;;;4915881;29;20644;-77
2021/12/10 14:23:24;;;;;;;4.77;2.47;;;;;;;;;;4917036;29;20545;-77
2021/12/10 14:26:32;;;;;;;4.03;2.63;;;;;;;;;;4917145;29;20554;-77
2021/12/10 14:29:37;;;;;;;3.73;2.10;;;;;;;;;;4894521;29;20624;-77
2021/12/10 14:32:42;;;;;;;3.90;2.33;;;;;;;;;;4916927;29;20612;-77
2021/12/10 14:35:52;;;;;;;3.43;2.60;;;;;;;;;;4916284;29;20601;-77
2021/12/10 14:39:16;;;;;;;6.30;2.87;;;;;;;;;;4915705;29;20616;-77
2021/12/10 14:42:20;;;;;;;4.50;2.50;;;;;;;;;;4916773;29;20565;-76
2021/12/10 14:45:26;;;;;;;4.43;2.47;;;;;;;;;;4916127;29;20545;-77
2021/12/10 14:48:34;;;;;;;3.83;2.23;;;;;;;;;;4905152;29;20608;-77
2021/12/10 14:51:40;;;;;;;5.63;2.67;;;;;;;;;;4916732;29;21174;-76
2021/12/10 14:55:21;;;;;;;4.30;2.43;;;;;;;;;;4916434;29;20648;-76
2021/12/10 14:58:25;;;;;;;6.10;2.63;;;;;;;;;;4894099;29;20600;-76
2021/12/10 15:01:31;;;;;;;5.40;2.63;;;;;;;;;;4915696;29;21152;-76
2021/12/10 15:04:40;;;;;;;4.37;2.97;;;;;;;;;;4905103;29;20896;-76
2021/12/10 15:07:47;;;;;;;8.00;2.50;;;;;;;;;;4916901;29;20550;-77
2021/12/10 15:10:51;;;;;;;4.00;2.83;;;;;;;;;;4894476;29;21189;-77
2021/12/10 15:14:11;;;;;;;4.27;2.80;;;;;;;;;;4905086;29;20549;-76
2021/12/10 15:17:17;;;;;;;4.37;2.70;;;;;;;;;;4905428;29;20550;-77
2021/12/10 15:20:30;;;;;;;3.30;2.87;;;;;;;;;;4916622;29;20628;-77
2021/12/10 15:23:35;;;;;;;4.90;3.30;;;;;;;;;;4916394;29;20603;-77
2021/12/10 15:26:43;;;;;;;7.40;3.10;;;;;;;;;;4916460;29;21090;-77
2021/12/10 15:30:01;;;;;;;3.73;2.90;;;;;;;;;;4916079;29;20625;-76
2021/12/10 15:33:09;;;;;;;6.20;3.20;;;;;;;;;;4918855;29;21079;-76
2021/12/10 15:36:15;;;;;;;3.27;2.63;;;;;;;;;;4907901;29;20596;-76
2021/12/10 15:39:19;;;;;;;5.27;3.00;;;;;;;;;;4907785;29;20612;-77
2021/12/10 15:42:27;;;;;;;5.07;2.90;;;;;;;;;;4907790;29;20560;-76
2021/12/10 15:45:36;;;;;;;4.30;3.10;;;;;;;;;;4918854;29;20546;-77
2021/12/10 15:48:43;;;;;;;4.67;3.40;;;;;;;;;;4918764;29;20541;-77
2021/12/10 15:51:51;;;;;;;4.80;3.03;;;;;;;;;;4918775;29;20553;-76
2021/12/10 15:54:59;;;;;;;6.67;3.47;;;;;;;;;;4918934;29;20601;-76
2021/12/10 15:58:10;;;;;;;4.43;3.07;;;;;;;;;;4919209;29;20549;-76
2021/12/10 16:01:20;;;;;;;4.80;3.40;;;;;;;;;;4919304;29;20624;-76
2021/12/10 16:04:36;;;;;;;5.83;3.77;;;;;;;;;;4907437;29;20939;-76
2021/12/10 16:07:44;;;;;;;4.00;3.40;;;;;;;;;;4907641;29;20887;-76
2021/12/10 16:10:51;;;;;;;5.10;3.43;;;;;;;;;;4918824;29;20636;-77
2021/12/10 16:13:56;;;;;;;7.20;3.60;;;;;;;;;;4918838;29;20612;-77
2021/12/10 16:17:07;;;;;;;5.87;3.63;;;;;;;;;;4907477;29;21079;-77
2021/12/10 16:20:22;;;;;;;7.10;3.57;;;;;;;;;;4917892;29;20991;-77
2021/12/10 16:23:39;;;;;;;4.27;3.23;;;;;;;;;;4907347;29;21070;-77
2021/12/10 16:26:51;;;;;;;6.20;3.90;;;;;;;;;;4919204;29;20542;-77
2021/12/10 16:30:00;;;;;;;7.47;4.33;;;;;;;;;;4918731;29;20628;-77
2021/12/10 16:33:07;;;;;;;6.07;4.17;;;;;;;;;;4918617;29;20889;-77
2021/12/10 16:36:14;;;;;;;5.73;4.30;;;;;;;;;;4907266;29;20601;-77
2021/12/10 16:39:18;;;;;;;6.17;4.40;;;;;;;;;;4903620;29;20621;-77
2021/12/10 16:42:23;;;;;;;5.90;4.40;;;;;;;;;;4914736;29;20569;-76
2021/12/10 16:45:29;;;;;;;6.83;4.60;;;;;;;;;;4914439;29;20557;-77
2021/12/10 16:48:37;;;;;;;6.20;4.57;;;;;;;;;;4915173;29;20569;-76
2021/12/10 16:51:55;;;;;;;6.67;4.90;;;;;;;;;;4909433;29;20573;-76
2021/12/10 16:55:03;;;;;;;7.27;4.60;;;;;;;;;;4924900;29;20664;-76
2021/12/10 16:58:14;;;;;;;9.07;5.40;;;;;;;;;;4914133;29;20573;-75
2021/12/10 17:01:23;;;;;;;8.53;5.60;;;;;;;;;;4914732;29;21205;-76
2021/12/10 17:04:30;;;;;;;5.90;4.90;;;;;;;;;;4914544;29;21123;-76
2021/12/10 17:07:45;;;;;;;6.27;5.27;;;;;;;;;;4913972;29;20573;-76
2021/12/10 17:10:58;;;;;;;7.57;5.23;;;;;;;;;;4914494;29;20979;-75
2021/12/10 17:14:33;;;;;;;9.43;5.33;;;;;;;;;;4914044;29;21281;-76
2021/12/10 17:17:38;;;;;;;8.17;5.17;;;;;;;;;;4902782;29;20589;-76
2021/12/10 17:20:46;;;;;;;11.50;5.80;;;;;;;;;;4913568;29;20993;-76
2021/12/10 17:23:52;;;;;;;7.97;5.23;;;;;;;;;;4924398;29;20577;-74
2021/12/10 17:26:57;;;;;;;5.97;5.30;;;;;;;;;;4913976;29;20569;-76
2021/12/10 17:30:25;;;;;;;7.20;4.97;;;;;;;;;;4914127;29;20628;-76
2021/12/10 17:33:32;;;;;;;8.43;5.83;;;;;;;;;;4913319;29;20573;-76
2021/12/10 17:36:41;;;;;;;7.43;5.70;;;;;;;;;;4891563;29;20625;-76
2021/12/10 17:39:59;;;;;;;7.87;5.50;;;;;;;;;;4912639;29;20652;-75
2021/12/10 17:43:07;;;;;;;7.73;5.97;;;;;;;;;;4914110;29;20565;-76
2021/12/10 17:46:23;;;;;;;10.07;5.80;;;;;;;;;;4913850;29;20609;-75
2021/12/10 17:49:30;;;;;;;7.47;6.00;;;;;;;;;;4912926;29;20629;-75
2021/12/10 17:52:37;;;;;;;8.03;5.90;;;;;;;;;;4914023;29;20557;-75
2021/12/10 17:55:49;;;;;;;8.17;6.03;;;;;;;;;;4912803;29;20656;-75
2021/12/10 17:58:56;;;;;;;9.73;6.83;;;;;;;;;;4909483;29;20612;-75
2021/12/10 18:02:05;;;;;;;10.20;6.30;;;;;;;;;;4913290;29;21118;-75
2021/12/10 18:05:20;;;;;;;9.83;6.87;;;;;;;;;;4891096;29;20569;-75
2021/12/10 18:08:27;;;;;;;7.87;6.43;;;;;;;;;;4913309;29;20566;-74
2021/12/10 18:11:35;;;;;;;10.77;7.20;;;;;;;;;;4913335;29;20572;-74
2021/12/10 18:14:50;;;;;;;9.97;7.10;;;;;;;;;;4912139;29;20561;-74
2021/12/10 18:18:00;;;;;;;9.13;6.30;;;;;;;;;;4913188;29;20569;-74
2021/12/10 18:21:12;;;;;;;8.97;7.07;;;;;;;;;;4913832;29;20637;-74
2021/12/10 18:24:19;;;;;;;9.63;6.93;;;;;;;;;;4912750;29;20569;-75
2021/12/10 18:27:28;;;;;;;10.23;7.20;;;;;;;;;;4912157;29;20569;-75
2021/12/10 18:30:32;;;;;;;10.97;7.20;;;;;;;;;;4901657;29;20628;-74
2021/12/10 18:33:41;;;;;;;13.07;8.97;;;;;;;;;;4913357;29;20573;-74
2021/12/10 18:36:46;;;;;;;11.90;8.60;;;;;;;;;;4901747;29;20624;-74
2021/12/10 18:40:00;;;;;;;11.77;8.40;;;;;;;;;;4911859;29;20648;-74
2021/12/10 18:43:08;;;;;;;10.70;8.03;;;;;;;;;;4913162;29;20569;-74
2021/12/10 18:46:20;;;;;;;11.83;8.97;;;;;;;;;;4912385;29;20577;-75
2021/12/10 18:49:29;;;;;;;11.63;8.17;;;;;;;;;;4913344;29;21201;-74
2021/12/10 18:52:33;;;;;;;10.37;8.53;;;;;;;;;;4913132;29;20565;-74
2021/12/10 18:55:41;;;;;;;11.90;8.93;;;;;;;;;;4913183;29;21248;-73
2021/12/10 18:58:50;;;;;;;12.40;8.87;;;;;;;;;;4913133;29;20632;-74
2021/12/10 19:02:01;;;;;;;12.10;9.53;;;;;;;;;;4912516;29;20617;-74
2021/12/10 19:05:23;;;;;;;12.27;9.57;;;;;;;;;;4912313;29;20573;-74
2021/12/10 19:08:37;;;;;;;13.00;9.63;;;;;;;;;;4916866;29;21114;-74
2021/12/10 19:11:43;;;;;;;11.97;9.30;;;;;;;;;;4916604;29;20959;-74
2021/12/10 19:14:52;;;;;;;13.53;11.00;;;;;;;;;;4916196;29;21102;-75